Time;durP1;ratioP1;P1;durP2;ratioP2;P2;SDS_P1;SDS_P2;PMS_P1;PMS_P2;Temp;Humidity;BMP_temperature;BMP_pressure;BME280_temperature;BME280_humidity;BME280_pressure;Samples;Min_cycle;Max_cycle;Signal;HPM_P1;HPM_P2
2022/11/06 00:04:16;;;;;;;9.83;6.43;;;7.80;99.90;;;;;;10468993;28;20220;-73
2022/11/06 00:09:19;;;;;;;10.37;6.30;;;7.80;99.90;;;;;;10471977;28;20257;-73
2022/11/06 00:14:20;;;;;;;12.87;6.90;;;7.80;99.90;;;;;;10466269;28;20248;-73
2022/11/06 00:19:20;;;;;;;11.17;6.90;;;7.80;99.90;;;;;;10511231;28;20233;-73
2022/11/06 00:24:21;;;;;;;12.50;6.70;;;7.90;99.90;;;;;;10471937;28;20235;-71
2022/11/06 00:29:21;;;;;;;8.50;6.13;;;7.80;99.90;;;;;;10477829;28;20372;-73
2022/11/06 00:34:22;;;;;;;11.67;7.20;;;7.70;99.90;;;;;;10495205;28;20428;-72
2022/11/06 00:39:23;;;;;;;12.10;8.07;;;7.50;99.90;;;;;;10479149;28;20224;-72
2022/11/06 00:44:23;;;;;;;12.13;7.53;;;7.40;99.90;;;;;;10476736;28;20227;-73
2022/11/06 00:49:24;;;;;;;9.93;6.83;;;7.30;99.90;;;;;;10469122;28;20308;-73
2022/11/06 00:54:24;;;;;;;11.03;7.50;;;7.30;99.90;;;;;;10462045;28;20246;-72
2022/11/06 00:59:25;;;;;;;12.53;7.40;;;7.20;99.90;;;;;;10477849;28;20337;-72
2022/11/06 01:04:25;;;;;;;14.43;8.27;;;7.20;99.90;;;;;;10477602;28;20275;-72
2022/11/06 01:09:27;;;;;;;12.07;7.67;;;7.10;99.90;;;;;;10475421;28;20257;-72
2022/11/06 01:14:28;;;;;;;12.37;7.97;;;7.10;99.90;;;;;;10470903;28;20227;-72
2022/11/06 01:19:28;;;;;;;12.67;7.57;;;7.10;99.90;;;;;;10475160;28;20215;-72
2022/11/06 01:24:29;;;;;;;14.93;8.07;;;7.00;99.90;;;;;;10467735;28;20222;-72
2022/11/06 01:29:30;;;;;;;13.13;8.00;;;7.00;99.90;;;;;;10475187;28;20734;-71
2022/11/06 01:34:31;;;;;;;11.90;8.13;;;7.00;99.90;;;;;;10468879;28;20227;-71
2022/11/06 01:39:31;;;;;;;14.53;8.10;;;7.00;99.90;;;;;;10471065;28;20303;-73
2022/11/06 01:44:32;;;;;;;14.57;8.17;;;6.90;99.90;;;;;;10473106;28;20223;-72
2022/11/06 01:49:37;;;;;;;8.97;7.40;;;6.80;99.90;;;;;;10463586;28;20223;-72
2022/11/06 01:54:40;;;;;;;13.60;7.50;;;6.80;99.90;;;;;;10471929;28;20219;-72
2022/11/06 01:59:43;;;;;;;13.47;7.60;;;6.70;99.90;;;;;;10470549;28;20261;-72
2022/11/06 02:04:47;;;;;;;10.07;7.40;;;6.70;99.90;;;;;;10471913;28;20246;-74
2022/11/06 02:10:18;;;;;;;11.40;6.70;;;6.60;99.90;;;;;;10469135;28;20227;-74
2022/11/06 02:15:28;;;;;;;11.77;7.00;;;6.70;99.90;;;;;;10460295;28;20215;-74
2022/11/06 02:21:07;;;;;;;14.70;7.40;;;6.70;99.90;;;;;;10472648;28;20218;-74
2022/11/06 02:26:32;;;;;;;14.70;7.20;;;6.60;99.90;;;;;;10459304;28;20695;-74
2022/11/06 02:31:38;;;;;;;17.30;7.90;;;6.60;99.90;;;;;;10462504;28;20215;-74
2022/11/06 02:37:00;;;;;;;11.63;7.33;;;6.60;99.90;;;;;;10468256;28;20614;-73
2022/11/06 02:42:04;;;;;;;11.27;7.93;;;6.50;99.90;;;;;;10467721;28;20215;-74
2022/11/06 02:47:08;;;;;;;10.33;6.80;;;6.40;99.90;;;;;;10464938;28;20221;-75
2022/11/06 02:52:33;;;;;;;10.77;7.47;;;6.40;99.90;;;;;;10466122;28;20734;-74
2022/11/06 02:57:37;;;;;;;14.37;8.10;;;6.40;99.90;;;;;;10472318;28;20225;-75
2022/11/06 03:02:52;;;;;;;11.77;8.30;;;6.30;99.90;;;;;;10470718;28;20216;-74
2022/11/06 03:08:01;;;;;;;10.40;7.83;;;6.30;99.90;;;;;;10463733;28;20232;-73
2022/11/06 03:13:19;;;;;;;14.33;8.17;;;6.30;99.90;;;;;;10471255;28;20258;-75
2022/11/06 03:18:34;;;;;;;12.10;7.70;;;6.20;99.90;;;;;;10457854;28;20216;-74
2022/11/06 03:23:48;;;;;;;11.57;7.60;;;6.20;99.90;;;;;;10463347;28;20227;-74
2022/11/06 03:28:55;;;;;;;12.63;8.23;;;6.10;99.90;;;;;;10499362;28;20220;-75
2022/11/06 03:34:04;;;;;;;15.03;8.53;;;6.10;99.90;;;;;;10463887;28;20228;-74
2022/11/06 03:39:09;;;;;;;13.17;7.90;;;6.10;99.90;;;;;;10503222;28;20246;-74
2022/11/06 03:44:16;;;;;;;13.10;8.23;;;6.10;99.90;;;;;;10463736;28;20234;-74
2022/11/06 03:49:24;;;;;;;14.40;8.30;;;6.00;99.90;;;;;;10454694;28;20237;-74
2022/11/06 03:54:41;;;;;;;13.70;8.83;;;6.00;99.90;;;;;;10470150;28;20231;-74
2022/11/06 03:59:46;;;;;;;12.30;8.40;;;5.90;99.90;;;;;;10499527;28;20694;-74
2022/11/06 04:04:53;;;;;;;11.17;8.20;;;5.90;99.90;;;;;;10470043;28;20289;-74
2022/11/06 04:15:24;;;;;;;15.27;8.47;;;5.70;99.90;;;;;;10456133;28;20237;-74
2022/11/06 04:31:57;;;;;;;12.00;8.00;;;5.70;99.90;;;;;;10463215;28;20678;-74
2022/11/06 04:37:09;;;;;;;12.10;8.30;;;5.60;99.90;;;;;;10464152;28;20262;-74
2022/11/06 04:42:36;;;;;;;11.03;8.03;;;5.60;99.90;;;;;;10470822;28;20590;-75
2022/11/06 04:47:37;;;;;;;12.60;8.90;;;5.50;99.90;;;;;;10460597;28;20223;-73
2022/11/06 04:52:40;;;;;;;11.83;7.73;;;5.50;99.90;;;;;;10462620;28;20281;-74
2022/11/06 04:57:41;;;;;;;12.80;8.90;;;5.50;99.90;;;;;;10460914;28;20219;-75
2022/11/06 05:02:42;;;;;;;13.13;8.80;;;5.40;99.90;;;;;;10476737;28;20246;-75
2022/11/06 05:07:43;;;;;;;11.00;8.13;;;5.40;99.90;;;;;;10473910;28;20231;-74
2022/11/06 05:12:46;;;;;;;10.47;8.23;;;5.30;99.90;;;;;;10505105;28;20553;-75
2022/11/06 05:17:46;;;;;;;14.97;8.87;;;5.30;99.90;;;;;;10476803;28;20235;-75
2022/11/06 05:22:59;;;;;;;15.63;9.33;;;5.30;99.90;;;;;;10493663;28;20275;-75
2022/11/06 05:28:01;;;;;;;14.60;9.30;;;5.20;99.90;;;;;;10470489;28;20232;-75
2022/11/06 05:33:01;;;;;;;12.03;7.87;;;5.20;99.90;;;;;;10474168;28;20227;-75
2022/11/06 05:38:02;;;;;;;14.73;8.53;;;5.20;99.90;;;;;;10502007;28;20212;-74
2022/11/06 05:43:03;;;;;;;12.30;8.33;;;5.20;99.90;;;;;;10468412;28;20918;-74
2022/11/06 05:48:03;;;;;;;12.40;8.43;;;5.10;99.90;;;;;;10474909;28;20223;-75
2022/11/06 05:53:04;;;;;;;12.37;8.50;;;5.10;99.90;;;;;;10501543;28;20626;-75
2022/11/06 05:58:05;;;;;;;16.03;10.33;;;5.10;99.90;;;;;;10474710;28;20737;-74
2022/11/06 06:03:06;;;;;;;19.27;13.00;;;5.10;99.90;;;;;;10467719;28;20601;-74
2022/11/06 06:08:07;;;;;;;20.07;13.70;;;5.10;99.90;;;;;;10474409;28;20259;-74
2022/11/06 06:13:08;;;;;;;18.73;14.13;;;5.10;99.90;;;;;;10466819;28;20251;-75
2022/11/06 06:18:12;;;;;;;18.03;12.83;;;5.10;99.90;;;;;;10465350;28;20219;-74
2022/11/06 06:23:12;;;;;;;15.03;11.33;;;5.10;99.90;;;;;;10473808;28;20264;-74
2022/11/06 06:28:13;;;;;;;14.90;10.40;;;5.10;99.90;;;;;;10465919;28;20698;-75
2022/11/06 06:33:13;;;;;;;13.80;9.23;;;5.10;99.90;;;;;;10463746;28;20319;-75
2022/11/06 06:38:14;;;;;;;12.17;9.60;;;5.20;99.90;;;;;;10473794;28;20246;-75
2022/11/06 06:43:14;;;;;;;12.67;9.67;;;5.20;99.90;;;;;;10505830;28;20215;-74
2022/11/06 06:48:15;;;;;;;13.70;10.10;;;5.40;99.90;;;;;;10455779;28;20933;-74
2022/11/06 06:53:15;;;;;;;13.80;9.60;;;5.60;99.90;;;;;;10465086;28;20219;-74
2022/11/06 06:58:16;;;;;;;11.20;8.10;;;6.50;99.90;;;;;;10464593;28;20216;-74
2022/11/06 07:03:20;;;;;;;11.33;7.83;;;6.60;99.90;;;;;;10471537;28;20284;-74
2022/11/06 07:08:20;;;;;;;10.63;8.37;;;6.50;99.90;;;;;;10465197;28;20219;-74
2022/11/06 07:13:21;;;;;;;8.90;7.37;;;6.50;99.90;;;;;;10472353;28;20228;-74
2022/11/06 07:18:22;;;;;;;9.77;7.50;;;6.50;99.90;;;;;;10466032;28;20216;-74
2022/11/06 07:23:22;;;;;;;9.20;6.03;;;6.50;99.90;;;;;;10493721;28;20714;-74
2022/11/06 07:28:26;;;;;;;7.50;6.47;;;6.60;99.90;;;;;;10504062;28;20265;-75
2022/11/06 07:33:28;;;;;;;10.37;6.27;;;6.70;99.90;;;;;;10497658;28;20220;-75
2022/11/06 07:38:28;;;;;;;6.27;5.67;;;6.90;99.90;;;;;;10466774;28;20810;-74
2022/11/06 07:43:29;;;;;;;8.73;6.00;;;7.00;99.90;;;;;;10470634;28;20341;-75
2022/11/06 07:48:31;;;;;;;8.90;7.00;;;7.20;99.90;;;;;;10464081;28;20220;-75
2022/11/06 07:53:32;;;;;;;7.87;4.90;;;9.30;99.90;;;;;;10466110;28;20220;-75
2022/11/06 07:58:33;;;;;;;6.33;4.70;;;11.50;99.90;;;;;;10472570;28;20693;-76
2022/11/06 08:03:33;;;;;;;6.13;4.17;;;13.50;99.90;;;;;;10468769;28;20254;-74
2022/11/06 08:08:34;;;;;;;6.47;4.10;;;17.20;99.90;;;;;;10495865;28;20586;-74
2022/11/06 08:13:35;;;;;;;5.80;4.13;;;20.20;99.90;;;;;;10495104;28;20241;-75
2022/11/06 08:18:35;;;;;;;4.93;3.90;;;22.40;89.40;;;;;;10465502;28;20728;-74
2022/11/06 08:23:36;;;;;;;4.97;4.10;;;23.60;73.40;;;;;;10463051;28;20218;-75
2022/11/06 08:28:37;;;;;;;7.40;4.60;;;24.20;64.60;;;;;;10461080;28;20235;-75
2022/11/06 08:33:38;;;;;;;5.63;4.40;;;24.80;58.90;;;;;;10466818;28;20235;-75
2022/11/06 08:38:39;;;;;;;5.30;4.80;;;25.20;56.50;;;;;;10474953;28;20760;-75
2022/11/06 08:43:39;;;;;;;4.80;4.30;;;25.60;53.00;;;;;;10472234;28;20219;-74
2022/11/06 08:48:40;;;;;;;7.50;5.27;;;25.90;53.50;;;;;;10470993;28;20278;-74
2022/11/06 08:53:40;;;;;;;6.80;5.03;;;27.00;50.30;;;;;;10473791;28;20236;-74
2022/11/06 08:58:41;;;;;;;6.97;4.97;;;28.40;46.70;;;;;;10474146;28;20240;-75
2022/11/06 09:03:42;;;;;;;6.67;4.50;;;28.70;45.40;;;;;;10473240;28;20306;-74
2022/11/06 09:08:42;;;;;;;4.53;3.47;;;29.10;45.00;;;;;;10477922;28;20274;-75
2022/11/06 09:13:43;;;;;;;6.23;4.07;;;29.70;43.50;;;;;;10505763;28;20226;-75
2022/11/06 09:18:43;;;;;;;7.40;3.97;;;30.00;41.30;;;;;;10505024;28;20223;-75
2022/11/06 09:23:44;;;;;;;7.23;4.07;;;29.10;42.00;;;;;;10468793;28;20305;-75
2022/11/06 09:28:45;;;;;;;5.87;4.37;;;29.00;41.90;;;;;;10472487;28;20203;-75
2022/11/06 09:33:46;;;;;;;6.50;4.37;;;29.30;41.90;;;;;;10472854;28;20218;-75
2022/11/06 09:38:47;;;;;;;6.17;3.80;;;28.30;42.50;;;;;;10473380;28;20237;-75
2022/11/06 09:44:18;;;;;;;3.57;2.90;;;28.00;42.90;;;;;;10505165;28;20224;-74
2022/11/06 09:49:47;;;;;;;4.50;3.17;;;27.40;43.90;;;;;;10467679;28;20219;-74
2022/11/06 09:55:01;;;;;;;4.20;3.10;;;26.50;43.90;;;;;;10459650;28;20220;-74
2022/11/06 10:00:04;;;;;;;5.30;3.50;;;26.20;44.60;;;;;;10506835;28;20223;-75
2022/11/06 10:05:23;;;;;;;8.53;3.30;;;26.30;44.30;;;;;;10433120;28;20224;-75
2022/11/06 10:10:37;;;;;;;4.30;3.17;;;25.90;45.20;;;;;;10492872;28;20207;-75
2022/11/06 10:15:53;;;;;;;5.50;3.00;;;25.40;45.90;;;;;;10472365;28;20224;-74
2022/11/06 10:21:22;;;;;;;6.20;3.00;;;25.60;45.60;;;;;;10472915;28;20575;-74
2022/11/06 10:26:38;;;;;;;3.90;3.07;;;25.80;45.90;;;;;;10456324;28;20753;-73
2022/11/06 10:32:00;;;;;;;4.83;2.90;;;27.00;44.10;;;;;;10469498;28;20238;-75
2022/11/06 10:37:12;;;;;;;4.80;3.07;;;27.70;42.90;;;;;;10474493;28;20638;-74
2022/11/06 10:42:17;;;;;;;3.80;2.50;;;28.80;41.40;;;;;;10466764;28;20251;-74
2022/11/06 10:47:22;;;;;;;3.93;2.77;;;29.30;40.50;;;;;;10457600;28;20246;-74
2022/11/06 10:52:48;;;;;;;3.83;2.30;;;29.90;39.00;;;;;;10472758;28;20221;-74
2022/11/06 10:57:51;;;;;;;4.73;2.30;;;30.10;40.10;;;;;;10470069;28;20752;-74
2022/11/06 11:02:56;;;;;;;3.87;2.50;;;29.50;39.60;;;;;;10467858;28;20230;-75
2022/11/06 11:07:56;;;;;;;3.67;2.50;;;27.80;41.00;;;;;;10465375;28;20269;-74
2022/11/06 11:12:59;;;;;;;5.33;2.93;;;23.70;47.80;;;;;;10471291;28;20725;-74
2022/11/06 11:18:08;;;;;;;6.90;2.60;;;20.50;55.20;;;;;;10468370;28;20260;-74
2022/11/06 11:23:19;;;;;;;5.13;2.50;;;18.30;59.90;;;;;;10471563;28;20219;-74
2022/11/06 11:28:35;;;;;;;2.93;2.50;;;17.10;65.50;;;;;;10485177;28;20711;-74
2022/11/06 11:33:38;;;;;;;3.33;2.50;;;16.40;69.70;;;;;;10469874;28;20246;-74
2022/11/06 11:38:41;;;;;;;4.30;2.73;;;15.70;71.80;;;;;;10463373;28;20270;-73
2022/11/06 11:43:42;;;;;;;4.60;2.30;;;15.40;76.40;;;;;;10466017;28;20249;-74
2022/11/06 11:48:50;;;;;;;3.20;2.90;;;15.10;75.50;;;;;;10468333;28;20223;-75
2022/11/06 11:53:53;;;;;;;6.00;2.70;;;14.90;76.00;;;;;;10463831;28;20659;-74
2022/11/06 11:58:57;;;;;;;5.00;2.73;;;14.70;77.80;;;;;;10463772;28;20226;-73
2022/11/06 12:03:59;;;;;;;5.47;2.70;;;14.50;77.70;;;;;;10470507;28;20746;-74
2022/11/06 12:09:01;;;;;;;5.17;2.50;;;14.30;79.40;;;;;;10469639;28;20226;-74
2022/11/06 12:14:20;;;;;;;3.20;2.27;;;14.20;82.00;;;;;;10510969;28;20845;-74
2022/11/06 12:19:23;;;;;;;2.47;2.07;;;14.30;81.80;;;;;;10460227;28;20653;-74
2022/11/06 12:24:32;;;;;;;3.40;2.60;;;14.40;79.90;;;;;;10506202;28;20646;-73
2022/11/06 12:29:47;;;;;;;2.80;2.37;;;14.70;83.90;;;;;;10469818;28;20303;-74
2022/11/06 12:34:59;;;;;;;3.97;1.90;;;15.10;82.90;;;;;;10474692;28;20659;-74
2022/11/06 12:40:30;;;;;;;3.43;2.53;;;15.30;78.70;;;;;;10475198;28;20494;-74
2022/11/06 12:45:55;;;;;;;1.97;1.70;;;15.60;79.50;;;;;;10465507;28;20264;-74
2022/11/06 12:50:59;;;;;;;3.40;1.97;;;15.80;79.20;;;;;;10470953;28;20215;-75
2022/11/06 12:56:40;;;;;;;3.17;2.17;;;15.80;78.30;;;;;;10475607;28;20322;-75
2022/11/06 13:01:43;;;;;;;2.87;1.83;;;15.60;79.60;;;;;;10500840;28;20610;-74
2022/11/06 13:07:11;;;;;;;1.60;1.40;;;15.50;79.90;;;;;;10502919;28;20269;-74
2022/11/06 13:12:24;;;;;;;3.30;2.67;;;15.00;76.80;;;;;;10468705;28;20266;-74
2022/11/06 13:17:34;;;;;;;1.60;1.50;;;14.80;77.90;;;;;;10455881;28;20216;-74
2022/11/06 13:22:41;;;;;;;4.97;3.20;;;14.60;77.80;;;;;;10509544;28;20251;-74
2022/11/06 13:28:00;;;;;;;1.60;1.50;;;14.60;80.50;;;;;;10468805;28;20216;-74
2022/11/06 13:33:19;;;;;;;1.70;1.53;;;14.70;80.80;;;;;;10508443;28;20601;-74
2022/11/06 13:38:43;;;;;;;1.83;1.73;;;14.60;83.60;;;;;;10462423;28;20219;-74
2022/11/06 13:43:51;;;;;;;2.43;2.20;;;14.50;88.10;;;;;;10472862;28;20381;-74
2022/11/06 13:49:39;;;;;;;5.43;3.40;;;14.30;89.70;;;;;;10461914;28;20215;-74
2022/11/06 13:55:03;;;;;;;4.20;2.67;;;14.10;90.50;;;;;;10465201;28;20779;-74
2022/11/06 14:00:21;;;;;;;2.67;2.47;;;13.90;91.30;;;;;;10475636;28;20223;-74
2022/11/06 14:05:49;;;;;;;2.97;2.67;;;13.80;92.20;;;;;;10493782;28;20238;-73
2022/11/06 14:11:00;;;;;;;2.70;2.47;;;13.80;92.40;;;;;;10475445;28;20306;-74
2022/11/06 14:16:07;;;;;;;3.60;2.50;;;13.80;93.10;;;;;;10468273;28;20237;-74
2022/11/06 14:21:40;;;;;;;2.77;2.17;;;13.70;92.90;;;;;;10461653;28;20223;-74
2022/11/06 14:26:51;;;;;;;5.20;2.60;;;13.50;93.40;;;;;;10470857;28;20865;-74
2022/11/06 14:32:09;;;;;;;3.50;2.50;;;13.30;93.90;;;;;;10464685;28;20785;-74
2022/11/06 14:37:19;;;;;;;3.97;2.50;;;13.20;95.00;;;;;;10468159;28;20318;-73
2022/11/06 14:42:39;;;;;;;3.33;2.10;;;13.10;95.70;;;;;;10491164;28;20219;-73
2022/11/06 14:47:53;;;;;;;3.60;1.97;;;13.00;96.60;;;;;;10471789;28;20295;-74
2022/11/06 14:52:57;;;;;;;5.03;4.20;;;13.00;97.70;;;;;;10471764;28;20870;-75
2022/11/06 14:58:27;;;;;;;3.60;2.30;;;13.00;98.40;;;;;;10476808;28;20742;-75
2022/11/06 15:03:34;;;;;;;7.10;3.17;;;12.90;98.90;;;;;;10459061;28;20235;-74
2022/11/06 15:08:52;;;;;;;4.00;3.30;;;12.80;99.90;;;;;;10467542;28;20673;-75
2022/11/06 15:13:53;;;;;;;5.27;2.50;;;12.60;99.90;;;;;;10468629;28;20224;-75
2022/11/06 15:18:54;;;;;;;2.60;2.10;;;12.40;99.90;;;;;;10469474;28;20333;-73
2022/11/06 15:24:14;;;;;;;3.13;2.50;;;12.30;99.90;;;;;;10473546;28;20560;-74
2022/11/06 15:29:14;;;;;;;3.63;2.63;;;12.20;99.90;;;;;;10497992;28;20597;-73
2022/11/06 15:34:28;;;;;;;5.17;4.60;;;12.00;99.90;;;;;;10463837;28;20235;-74
2022/11/06 15:39:28;;;;;;;4.87;3.70;;;11.90;99.90;;;;;;10459544;28;20216;-75
2022/11/06 15:44:29;;;;;;;5.93;4.30;;;11.80;99.90;;;;;;10502206;28;20700;-74
2022/11/06 15:49:29;;;;;;;7.53;5.30;;;11.70;99.90;;;;;;10464407;28;20226;-75
2022/11/06 15:54:57;;;;;;;5.13;3.60;;;11.60;99.90;;;;;;10465322;28;20220;-75
2022/11/06 16:00:16;;;;;;;5.67;4.10;;;11.60;99.90;;;;;;10471578;28;20272;-75
2022/11/06 16:05:19;;;;;;;5.40;4.17;;;11.50;99.90;;;;;;10454333;28;20695;-75
2022/11/06 16:10:21;;;;;;;12.13;5.30;;;11.50;99.90;;;;;;10472219;28;20614;-74
2022/11/06 16:15:43;;;;;;;4.10;2.53;;;11.40;99.90;;;;;;10497116;28;20215;-74
2022/11/06 16:20:48;;;;;;;3.63;2.20;;;11.30;99.90;;;;;;10460297;28;20203;-74
2022/11/06 16:25:55;;;;;;;2.57;2.37;;;11.30;99.90;;;;;;10467819;28;20207;-74
2022/11/06 16:31:05;;;;;;;2.50;2.30;;;11.20;99.90;;;;;;10454285;28;20766;-74
2022/11/06 16:36:08;;;;;;;7.67;5.37;;;11.00;99.90;;;;;;10465009;28;20274;-74
2022/11/06 16:41:36;;;;;;;12.27;6.60;;;10.90;99.90;;;;;;10468477;28;20216;-75
2022/11/06 16:47:09;;;;;;;11.80;7.33;;;10.90;99.90;;;;;;10457242;28;20222;-74
2022/11/06 16:52:21;;;;;;;11.53;6.20;;;10.90;99.90;;;;;;10470184;28;20272;-74
2022/11/06 16:57:32;;;;;;;4.13;3.43;;;10.90;99.90;;;;;;10461647;28;20230;-74
2022/11/06 17:02:36;;;;;;;4.10;2.70;;;11.00;99.90;;;;;;10475467;28;20631;-75
2022/11/06 17:07:38;;;;;;;4.37;2.80;;;10.90;99.90;;;;;;10505353;28;20322;-75
2022/11/06 17:12:38;;;;;;;2.80;2.50;;;10.90;99.90;;;;;;10475914;28;20227;-74
2022/11/06 17:17:39;;;;;;;3.57;2.83;;;10.90;99.90;;;;;;10505495;28;20212;-74
2022/11/06 17:22:39;;;;;;;6.07;2.90;;;10.90;99.90;;;;;;10468068;28;20219;-75
2022/11/06 17:27:40;;;;;;;3.77;2.37;;;10.90;99.90;;;;;;10473931;28;20636;-74
2022/11/06 17:32:41;;;;;;;3.47;2.90;;;10.80;99.90;;;;;;10472322;28;20220;-75
2022/11/06 17:37:41;;;;;;;5.60;4.00;;;10.80;99.90;;;;;;10506747;28;20601;-74
2022/11/06 17:42:42;;;;;;;8.67;5.30;;;10.80;99.90;;;;;;10470670;28;20219;-75
2022/11/06 17:47:42;;;;;;;6.60;4.40;;;10.80;99.90;;;;;;10487898;28;20211;-74
2022/11/06 17:52:43;;;;;;;7.30;4.73;;;10.80;99.90;;;;;;10471343;28;20215;-74
2022/11/06 17:57:44;;;;;;;6.97;5.50;;;10.90;99.90;;;;;;10473139;28;20215;-74
2022/11/06 18:02:44;;;;;;;6.30;4.63;;;10.90;99.90;;;;;;10471364;28;20701;-74
2022/11/06 18:07:45;;;;;;;8.50;6.93;;;10.80;99.90;;;;;;10474787;28;20816;-75
2022/11/06 18:12:50;;;;;;;10.37;8.63;;;10.70;99.90;;;;;;10462980;28;20234;-76
2022/11/06 18:17:50;;;;;;;8.90;7.53;;;10.70;99.90;;;;;;10471738;28;20223;-75
2022/11/06 18:22:51;;;;;;;7.00;5.53;;;10.70;99.90;;;;;;10479377;28;20218;-74
2022/11/06 18:27:51;;;;;;;9.30;5.83;;;10.80;99.90;;;;;;10502669;28;20247;-75
2022/11/06 18:32:52;;;;;;;10.07;5.20;;;10.70;99.90;;;;;;10469267;28;20224;-76
2022/11/06 18:37:52;;;;;;;6.93;4.50;;;10.70;99.90;;;;;;10504159;28;20225;-74
2022/11/06 18:42:53;;;;;;;4.23;3.83;;;10.70;99.90;;;;;;10470867;28;20340;-75
2022/11/06 18:47:54;;;;;;;4.10;3.70;;;10.70;99.90;;;;;;10474682;28;20239;-76
2022/11/06 18:52:56;;;;;;;4.87;4.03;;;10.60;99.90;;;;;;10471487;28;20241;-75
2022/11/06 18:57:57;;;;;;;4.93;4.17;;;10.60;99.90;;;;;;10469580;28;20222;-75
2022/11/06 19:02:57;;;;;;;4.80;4.07;;;10.60;99.90;;;;;;10470924;28;20223;-74
2022/11/06 19:07:58;;;;;;;4.10;3.70;;;10.60;99.90;;;;;;10473840;28;20215;-77
2022/11/06 19:12:58;;;;;;;4.47;4.00;;;10.50;99.90;;;;;;10467522;28;20230;-74
2022/11/06 19:18:00;;;;;;;4.33;3.90;;;10.50;99.90;;;;;;10469412;28;20282;-74
2022/11/06 19:23:00;;;;;;;4.57;3.80;;;10.60;99.90;;;;;;10467544;28;20222;-76
2022/11/06 19:28:01;;;;;;;4.50;4.10;;;10.60;99.90;;;;;;10471623;28;20642;-74
2022/11/06 19:33:03;;;;;;;5.57;3.73;;;10.60;99.90;;;;;;10457977;28;20338;-74
2022/11/06 19:38:03;;;;;;;6.90;3.67;;;10.70;99.90;;;;;;10465568;28;20208;-73
2022/11/06 19:43:05;;;;;;;4.87;4.23;;;10.60;99.90;;;;;;10464645;28;20223;-75
2022/11/06 19:48:06;;;;;;;5.73;4.40;;;10.60;99.90;;;;;;10460964;28;20276;-75
2022/11/06 19:53:06;;;;;;;8.17;4.87;;;10.50;99.90;;;;;;10497151;28;20328;-75
2022/11/06 19:58:07;;;;;;;6.40;4.63;;;10.40;99.90;;;;;;10471649;28;20219;-75
2022/11/06 20:03:08;;;;;;;5.23;4.53;;;10.40;99.90;;;;;;10461715;28;20273;-75
2022/11/06 20:08:09;;;;;;;8.90;6.50;;;10.40;99.90;;;;;;10472050;28;20222;-75
2022/11/06 20:13:15;;;;;;;9.00;5.43;;;10.40;99.90;;;;;;10497821;28;20242;-75
2022/11/06 20:18:16;;;;;;;6.03;4.53;;;10.30;99.90;;;;;;10473414;28;20231;-75
2022/11/06 20:23:16;;;;;;;4.73;4.23;;;10.20;99.90;;;;;;10504194;28;20230;-76
2022/11/06 20:28:17;;;;;;;6.40;4.43;;;10.10;99.90;;;;;;10464693;28;20342;-75
2022/11/06 20:33:18;;;;;;;5.33;4.13;;;9.90;99.90;;;;;;10455394;28;20646;-75
2022/11/06 20:38:18;;;;;;;8.30;4.93;;;9.70;99.90;;;;;;10484105;28;20243;-75
2022/11/06 20:43:20;;;;;;;5.17;4.43;;;9.60;99.90;;;;;;10476872;28;20223;-70
2022/11/06 20:48:21;;;;;;;5.70;4.27;;;9.50;99.90;;;;;;10470195;28;20267;-69
2022/11/06 20:53:22;;;;;;;6.00;4.60;;;9.40;99.90;;;;;;10467948;28;20332;-72
2022/11/06 20:58:23;;;;;;;6.87;3.87;;;9.40;99.90;;;;;;10469171;28;20786;-69
2022/11/06 21:03:23;;;;;;;9.43;4.73;;;9.40;99.90;;;;;;10470316;28;20247;-70
2022/11/06 21:08:24;;;;;;;6.27;4.40;;;9.40;99.90;;;;;;10467156;28;20729;-72
2022/11/06 21:13:26;;;;;;;5.87;4.60;;;9.50;99.90;;;;;;10476894;28;20309;-69
2022/11/06 21:18:27;;;;;;;6.80;4.93;;;9.70;99.90;;;;;;10464751;28;20219;-70
2022/11/06 21:23:28;;;;;;;6.40;4.10;;;9.80;99.90;;;;;;10473428;28;20701;-75
2022/11/06 21:28:28;;;;;;;5.53;4.03;;;9.90;99.90;;;;;;10470676;28;20307;-75
2022/11/06 21:33:29;;;;;;;5.47;3.97;;;10.00;99.90;;;;;;10466222;28;20227;-77
2022/11/06 21:38:30;;;;;;;4.63;4.23;;;10.10;99.90;;;;;;10465647;28;20698;-77
2022/11/06 21:43:30;;;;;;;5.57;3.77;;;10.10;99.90;;;;;;10456571;28;20227;-75
2022/11/06 21:48:32;;;;;;;5.23;3.80;;;10.20;99.90;;;;;;10456483;28;20208;-78
2022/11/06 21:58:57;;;;;;;4.60;3.50;;;10.20;99.90;;;;;;10472075;28;20224;-78
2022/11/06 22:03:59;;;;;;;7.17;3.80;;;10.10;99.90;;;;;;10471330;28;20248;-78
2022/11/06 22:09:01;;;;;;;4.67;3.50;;;10.20;99.90;;;;;;10477510;28;20215;-78
2022/11/06 22:14:15;;;;;;;4.60;3.70;;;10.20;99.90;;;;;;10478832;28;20226;-78
2022/11/06 22:19:16;;;;;;;4.43;3.40;;;10.20;99.90;;;;;;10471501;28;20224;-79
2022/11/06 22:24:17;;;;;;;4.83;3.53;;;10.30;99.90;;;;;;10473293;28;20752;-76
2022/11/06 22:29:17;;;;;;;4.00;3.40;;;10.30;99.90;;;;;;10466301;28;20224;-76
2022/11/06 22:34:18;;;;;;;5.00;3.00;;;10.30;99.90;;;;;;10451322;28;20304;-76
2022/11/06 22:39:18;;;;;;;3.60;3.30;;;10.30;99.90;;;;;;10457926;28;20219;-77
2022/11/06 22:44:19;;;;;;;4.40;2.90;;;10.20;99.90;;;;;;10490662;28;20285;-76
2022/11/06 22:49:19;;;;;;;3.80;3.00;;;10.20;99.90;;;;;;10494486;28;20247;-77
2022/11/06 22:54:20;;;;;;;5.33;4.03;;;10.20;99.90;;;;;;10469074;28;20219;-75
2022/11/06 22:59:21;;;;;;;5.77;3.30;;;10.20;99.90;;;;;;10459540;28;20323;-74
2022/11/06 23:04:21;;;;;;;4.40;3.37;;;10.20;99.90;;;;;;10468511;28;20282;-74
2022/11/06 23:09:22;;;;;;;5.47;3.77;;;10.20;99.90;;;;;;10466554;28;20296;-75
2022/11/06 23:14:22;;;;;;;5.03;3.37;;;10.20;99.90;;;;;;10464300;28;20758;-79
2022/11/06 23:19:23;;;;;;;5.47;3.67;;;10.20;99.90;;;;;;10467237;28;20215;-77
2022/11/06 23:24:24;;;;;;;7.10;4.07;;;10.30;99.90;;;;;;10465458;28;20230;-77
2022/11/06 23:29:24;;;;;;;5.40;3.93;;;10.20;99.90;;;;;;10487785;28;20227;-74
2022/11/06 23:34:25;;;;;;;6.70;3.80;;;10.30;99.90;;;;;;10464225;28;20216;-74
2022/11/06 23:39:26;;;;;;;5.70;3.60;;;10.20;99.90;;;;;;10471458;28;20603;-74
2022/11/06 23:49:45;;;;;;;5.17;3.83;;;10.30;99.90;;;;;;10456692;28;20212;-75
2022/11/06 23:54:46;;;;;;;4.10;3.37;;;10.30;99.90;;;;;;10472154;28;20223;-75
2022/11/06 23:59:47;;;;;;;4.57;3.80;;;10.30;99.90;;;;;;10450721;28;20746;-74
